createdAt,value
2023-02-01T00:00:58.553Z,0.40
2023-02-01T00:03:25.455Z,0.32
2023-02-01T00:05:59.678Z,0.22
2023-02-01T00:08:27.304Z,0.30
2023-02-01T00:11:02.548Z,0.38
2023-02-01T00:13:31.412Z,0.40
2023-02-01T00:16:26.339Z,0.40
2023-02-01T00:18:58.781Z,0.30
2023-02-01T00:21:25.728Z,0.32
2023-02-01T00:23:52.569Z,0.50
2023-02-01T00:26:43.630Z,0.30
2023-02-01T00:29:14.307Z,0.40
2023-02-01T00:31:41.458Z,0.40
2023-02-01T00:34:09.974Z,0.40
2023-02-01T00:36:36.873Z,0.50
2023-02-01T00:39:03.996Z,0.40
2023-02-01T00:41:30.861Z,0.35
2023-02-01T00:43:57.703Z,0.50
2023-02-01T00:46:25.212Z,0.22
2023-02-01T00:48:52.356Z,0.40
2023-02-01T00:51:22.669Z,0.43
2023-02-01T00:53:50.034Z,0.40
2023-02-01T00:56:16.979Z,0.50
2023-02-01T00:58:46.078Z,0.63
2023-02-01T01:01:18.443Z,0.30
2023-02-01T01:03:56.988Z,0.40
2023-02-01T01:06:26.751Z,0.60
2023-02-01T01:08:55.220Z,0.50
2023-02-01T01:11:25.095Z,0.43
2023-02-01T01:13:52.977Z,0.40
2023-02-01T01:16:21.582Z,0.60
2023-02-01T01:18:48.705Z,0.50
2023-02-01T01:21:17.020Z,0.50
2023-02-01T01:23:45.006Z,0.52
2023-02-01T01:26:24.058Z,0.45
2023-02-01T01:28:51.689Z,0.40
2023-02-01T01:31:20.827Z,0.40
2023-02-01T01:33:56.258Z,0.90
2023-02-01T01:36:23.494Z,0.40
2023-02-01T01:38:50.528Z,0.47
2023-02-01T01:41:20.489Z,0.50
2023-02-01T01:43:47.255Z,0.60
2023-02-01T01:46:18.778Z,0.70
2023-02-01T01:48:46.986Z,0.60
2023-02-01T01:51:18.439Z,0.52
2023-02-01T01:53:55.405Z,0.52
2023-02-01T01:56:23.365Z,0.30
2023-02-01T01:58:50.324Z,0.40
2023-02-01T02:01:17.815Z,0.35
2023-02-01T02:03:46.946Z,0.43
2023-02-01T02:06:28.829Z,0.40
2023-02-01T02:08:55.739Z,0.40
2023-02-01T02:11:22.827Z,0.50
2023-02-01T02:13:53.436Z,0.50
2023-02-01T02:16:57.232Z,0.52
2023-02-01T02:20:01.820Z,0.40
2023-02-01T02:22:59.540Z,1.10
2023-02-01T02:25:45.773Z,0.90
2023-02-01T02:28:50.120Z,0.60
2023-02-01T02:31:42.902Z,0.47
2023-02-01T02:34:46.882Z,0.60
2023-02-01T02:37:16.764Z,0.50
2023-02-01T02:39:50.504Z,0.65
2023-02-01T02:42:48.057Z,0.70
2023-02-01T02:46:19.123Z,0.40
2023-02-01T02:48:48.231Z,0.55
2023-02-01T02:51:55.288Z,0.55
2023-02-01T02:54:48.772Z,0.50
2023-02-01T02:58:03.626Z,0.50
2023-02-01T03:00:52.384Z,0.68
2023-02-01T03:03:37.909Z,0.52
2023-02-01T03:06:06.901Z,0.40
2023-02-01T03:08:33.790Z,0.50
2023-02-01T03:11:07.909Z,0.50
2023-02-01T03:13:53.020Z,0.43
2023-02-01T03:16:42.926Z,0.50
2023-02-01T03:19:50.635Z,0.50
2023-02-01T03:22:27.869Z,0.50
2023-02-01T03:25:04.067Z,0.50
2023-02-01T03:27:44.829Z,0.60
2023-02-01T03:30:22.618Z,0.40
2023-02-01T03:33:01.698Z,0.50
2023-02-01T03:36:02.620Z,0.47
2023-02-01T03:38:42.404Z,0.30
2023-02-01T03:41:21.104Z,0.55
2023-02-01T03:43:59.985Z,0.40
2023-02-01T03:46:36.448Z,0.50
2023-02-01T03:49:10.114Z,0.40
2023-02-01T03:51:39.883Z,0.40
2023-02-01T03:54:10.864Z,0.40
2023-02-01T03:56:42.653Z,0.30
2023-02-01T03:59:09.840Z,0.30
2023-02-01T04:01:36.694Z,0.30
2023-02-01T04:04:03.722Z,0.35
2023-02-01T04:06:30.723Z,0.50
2023-02-01T04:08:57.570Z,0.50
2023-02-01T04:11:24.445Z,0.50
2023-02-01T04:13:51.215Z,0.43
2023-02-01T04:16:18.031Z,0.40
2023-02-01T04:18:44.924Z,0.43
2023-02-01T04:21:11.742Z,0.30
2023-02-01T04:23:38.521Z,0.30
2023-02-01T04:26:06.113Z,0.20
2023-02-01T04:28:32.939Z,0.32
2023-02-01T04:31:00.184Z,0.38
2023-02-01T04:33:27.323Z,0.30
2023-02-01T04:35:54.198Z,0.22
2023-02-01T04:38:21.085Z,0.30
2023-02-01T04:40:49.312Z,0.30
2023-02-01T04:43:17.544Z,0.40
2023-02-01T04:45:51.264Z,0.25
2023-02-01T04:48:19.577Z,0.30
2023-02-01T04:50:49.861Z,0.30
2023-02-01T04:53:16.973Z,0.30
2023-02-01T04:55:44.939Z,0.30
2023-02-01T04:58:12.021Z,0.40
2023-02-01T05:00:38.973Z,0.40
2023-02-01T05:03:06.383Z,0.30
2023-02-01T05:05:33.223Z,0.20
2023-02-01T05:08:00.129Z,0.40
2023-02-01T05:10:26.991Z,0.30
2023-02-01T05:13:12.595Z,0.22
2023-02-01T05:15:39.469Z,0.30
2023-02-01T05:18:06.444Z,0.20
2023-02-01T05:20:33.335Z,0.30
2023-02-01T05:23:00.217Z,0.20
2023-02-01T05:25:27.054Z,0.40
2023-02-01T05:27:54.851Z,0.30
2023-02-01T05:30:22.262Z,0.20
2023-02-01T05:32:53.694Z,0.28
2023-02-01T05:37:47.582Z,0.38
2023-02-01T05:40:14.538Z,0.47
2023-02-01T05:42:41.482Z,0.40
2023-02-01T05:45:09.074Z,0.57
2023-02-01T05:47:35.891Z,0.30
2023-02-01T05:50:04.053Z,0.38
2023-02-01T05:52:31.364Z,0.85
2023-02-01T05:54:58.160Z,0.50
2023-02-01T05:57:25.025Z,1.48
2023-02-01T05:59:51.822Z,0.95
2023-02-01T06:02:18.720Z,1.58
2023-02-01T06:04:45.556Z,0.82
2023-02-01T06:07:12.736Z,0.77
2023-02-01T06:09:39.702Z,0.82
2023-02-01T06:12:06.933Z,0.50
2023-02-01T06:14:33.821Z,0.70
2023-02-01T06:17:01.074Z,0.95
2023-02-01T06:19:27.952Z,1.48
2023-02-01T06:21:54.820Z,1.00
2023-02-01T06:24:21.636Z,1.50
2023-02-01T06:26:48.448Z,1.60
2023-02-01T06:29:15.407Z,1.20
2023-02-01T06:31:44.040Z,1.80
2023-02-01T06:34:10.893Z,1.20
2023-02-01T06:36:37.904Z,1.58
2023-02-01T06:39:04.966Z,1.17
2023-02-01T06:41:31.858Z,0.73
2023-02-01T06:43:58.793Z,0.93
2023-02-01T06:46:25.798Z,0.85
2023-02-01T06:48:52.684Z,0.70
2023-02-01T06:51:25.936Z,0.75
2023-02-01T06:53:53.218Z,0.90
2023-02-01T06:56:21.015Z,0.50
2023-02-01T06:58:48.322Z,0.50
2023-02-01T07:01:15.902Z,0.30
2023-02-01T07:03:43.343Z,0.50
2023-02-01T07:06:11.341Z,0.40
2023-02-01T07:08:39.105Z,0.40
2023-02-01T07:11:14.871Z,0.50
2023-02-01T07:13:41.928Z,0.50
2023-02-01T07:16:13.489Z,0.32
2023-02-01T07:18:40.875Z,2.13
2023-02-01T07:21:07.877Z,0.70
2023-02-01T07:23:34.802Z,0.50
2023-02-01T07:26:04.455Z,0.95
2023-02-01T07:28:34.168Z,0.50
2023-02-01T07:31:09.525Z,1.02
2023-02-01T07:33:36.613Z,0.52
2023-02-01T07:36:06.516Z,0.70
2023-02-01T07:38:33.564Z,0.90
2023-02-01T07:41:05.352Z,0.65
2023-02-01T07:43:34.351Z,0.60
2023-02-01T07:46:02.626Z,0.30
2023-02-01T07:48:30.449Z,0.50
2023-02-01T07:51:09.821Z,0.32
2023-02-01T07:53:37.481Z,0.60
2023-02-01T07:56:05.509Z,0.40
2023-02-01T07:58:32.463Z,0.73
2023-02-01T08:01:17.950Z,1.20
2023-02-01T08:03:44.959Z,0.32
2023-02-01T08:06:11.928Z,0.40
2023-02-01T08:08:39.246Z,0.40
2023-02-01T08:11:07.650Z,0.40
2023-02-01T08:13:36.528Z,0.28
2023-02-01T08:16:07.026Z,0.47
2023-02-01T08:18:34.995Z,0.40
2023-02-01T08:21:06.970Z,0.73
2023-02-01T08:23:35.594Z,0.50
2023-02-01T08:26:17.675Z,0.30
2023-02-01T08:28:48.405Z,0.60
2023-02-01T08:31:17.726Z,1.05
2023-02-01T08:33:48.916Z,0.30
2023-02-01T08:38:42.664Z,0.30
2023-02-01T08:41:15.359Z,0.35
2023-02-01T08:43:42.706Z,0.45
2023-02-01T08:46:10.902Z,0.43
2023-02-01T08:48:38.595Z,0.30
2023-02-01T08:51:08.634Z,0.30
2023-02-01T08:53:35.603Z,0.40
2023-02-01T08:56:02.626Z,0.40
2023-02-01T08:58:29.850Z,0.30
2023-02-01T09:00:56.792Z,0.40
2023-02-01T09:03:23.837Z,0.40
2023-02-01T09:05:51.966Z,0.50
2023-02-01T09:08:21.481Z,0.30
2023-02-01T09:10:48.459Z,0.38
2023-02-01T09:13:15.468Z,0.40
2023-02-01T09:15:42.539Z,0.20
2023-02-01T09:18:09.478Z,0.40
2023-02-01T09:20:38.685Z,0.73
2023-02-01T09:23:07.950Z,0.15
2023-02-01T09:25:34.935Z,0.40
2023-02-01T09:28:02.069Z,0.30
2023-02-01T09:30:30.521Z,0.20
2023-02-01T09:32:58.223Z,0.50
2023-02-01T09:35:25.125Z,0.40
2023-02-01T09:37:54.292Z,0.20
2023-02-01T09:40:23.091Z,0.68
2023-02-01T09:42:58.929Z,0.40
2023-02-01T09:45:37.108Z,0.40
2023-02-01T09:48:13.636Z,0.28
2023-02-01T09:50:44.703Z,0.43
2023-02-01T09:53:23.274Z,0.30
2023-02-01T09:55:52.829Z,0.30
2023-02-01T09:58:28.876Z,0.30
2023-02-01T10:01:02.084Z,0.30
2023-02-01T10:03:31.793Z,0.30
2023-02-01T10:06:18.022Z,0.40
2023-02-01T10:09:15.770Z,0.52
2023-02-01T10:12:04.046Z,0.40
2023-02-01T10:14:51.123Z,0.40
2023-02-01T10:17:31.927Z,0.30
2023-02-01T10:20:09.199Z,0.60
2023-02-01T10:23:10.742Z,0.57
2023-02-01T10:26:03.475Z,0.40
2023-02-01T10:28:35.264Z,0.40
2023-02-01T10:31:03.355Z,0.40
2023-02-01T10:33:43.100Z,0.20
2023-02-01T10:36:53.643Z,0.73
2023-02-01T10:39:20.688Z,0.35
2023-02-01T10:41:48.553Z,0.40
2023-02-01T10:44:18.098Z,0.50
2023-02-01T10:46:45.098Z,0.32
2023-02-01T10:49:22.200Z,0.40
2023-02-01T10:52:08.971Z,0.30
2023-02-01T10:54:39.612Z,0.45
2023-02-01T10:57:30.905Z,0.35
2023-02-01T10:59:57.873Z,0.40
2023-02-01T11:02:30.326Z,0.43
2023-02-01T11:05:06.211Z,0.30
2023-02-01T11:07:34.067Z,0.30
2023-02-01T11:10:01.018Z,0.30
2023-02-01T11:12:39.385Z,0.32
2023-02-01T11:15:24.706Z,0.30
2023-02-01T11:17:54.786Z,0.38
2023-02-01T11:20:53.283Z,0.30
2023-02-01T11:23:29.978Z,0.50
2023-02-01T11:26:03.997Z,0.20
2023-02-01T11:28:36.672Z,0.50
2023-02-01T11:31:07.148Z,0.40
2023-02-01T11:33:38.237Z,0.22
2023-02-01T11:36:17.080Z,0.20
2023-02-01T11:39:10.530Z,0.40
2023-02-01T11:41:58.264Z,0.50
2023-02-01T11:44:35.737Z,0.50
2023-02-01T11:47:32.941Z,0.50
2023-02-01T11:50:02.818Z,0.30
2023-02-01T11:52:45.626Z,0.50
2023-02-01T11:55:12.594Z,0.20
2023-02-01T11:57:58.584Z,0.30
2023-02-01T12:00:34.734Z,0.40
2023-02-01T12:03:13.787Z,0.38
2023-02-01T12:06:08.221Z,0.47
2023-02-01T12:08:59.935Z,0.63
2023-02-01T12:11:49.914Z,0.47
2023-02-01T12:14:45.554Z,0.40
2023-02-01T12:17:38.417Z,0.57
2023-02-01T12:20:11.056Z,0.40
2023-02-01T12:22:41.101Z,0.40
2023-02-01T12:25:16.163Z,0.50
2023-02-01T12:27:54.898Z,0.30
2023-02-01T12:30:59.151Z,0.40
2023-02-01T12:33:28.966Z,0.50
2023-02-01T12:36:10.672Z,0.60
2023-02-01T12:38:52.921Z,0.60
2023-02-01T12:41:40.249Z,0.32
2023-02-01T12:44:34.584Z,0.50
2023-02-01T12:47:25.988Z,0.40
2023-02-01T12:52:45.878Z,0.45
2023-02-01T12:55:24.385Z,0.30
2023-02-01T12:58:18.423Z,0.60
2023-02-01T13:00:50.487Z,0.50
2023-02-01T13:03:48.180Z,0.50
2023-02-01T13:06:18.654Z,0.38
2023-02-01T13:08:54.316Z,0.52
2023-02-01T13:11:39.586Z,0.40
2023-02-01T13:14:51.747Z,0.40
2023-02-01T13:17:29.640Z,0.40
2023-02-01T13:20:04.009Z,0.40
2023-02-01T13:22:35.436Z,0.60
2023-02-01T13:25:09.208Z,0.60
2023-02-01T13:27:36.323Z,0.38
2023-02-01T13:30:19.555Z,0.50
2023-02-01T13:33:52.402Z,0.50
2023-02-01T13:35:40.280Z,0.30
2023-02-01T13:38:27.068Z,0.50
2023-02-01T13:41:25.684Z,0.50
2023-02-01T13:43:56.765Z,0.50
2023-02-01T13:46:24.106Z,0.30
2023-02-01T13:49:02.223Z,0.40
2023-02-01T13:51:47.185Z,0.57
2023-02-01T13:54:27.565Z,1.52
2023-02-01T13:56:56.046Z,1.10
2023-02-01T13:59:41.032Z,0.98
2023-02-01T14:02:37.822Z,1.65
2023-02-01T14:05:09.251Z,1.00
2023-02-01T14:07:36.367Z,0.98
2023-02-01T14:10:40.403Z,0.80
2023-02-01T14:13:39.471Z,0.70
2023-02-01T14:16:07.048Z,1.95
2023-02-01T14:18:42.338Z,0.75
2023-02-01T14:21:25.162Z,1.30
2023-02-01T14:23:55.083Z,1.45
2023-02-01T14:26:43.695Z,1.20
2023-02-01T14:29:20.928Z,5.45
2023-02-01T14:32:01.157Z,3.33
2023-02-01T14:34:44.984Z,1.77
2023-02-01T14:37:26.375Z,4.13
2023-02-01T14:40:04.674Z,2.92
2023-02-01T14:42:35.109Z,2.22
2023-02-01T14:45:20.632Z,2.83
2023-02-01T14:47:53.571Z,1.48
2023-02-01T14:50:38.823Z,3.13
2023-02-01T14:53:16.904Z,1.40
2023-02-01T14:56:05.701Z,2.67
2023-02-01T14:59:11.288Z,2.08
2023-02-01T15:01:47.499Z,1.60
2023-02-01T15:04:19.786Z,1.50
2023-02-01T15:06:58.692Z,1.42
2023-02-01T15:09:28.598Z,1.77
2023-02-01T15:12:13.841Z,1.00
2023-02-01T15:15:24.572Z,1.00
2023-02-01T15:18:01.203Z,0.80
2023-02-01T15:20:36.987Z,1.20
2023-02-01T15:23:09.178Z,1.00
2023-02-01T15:25:39.836Z,0.73
2023-02-01T15:28:14.581Z,0.88
2023-02-01T15:30:41.602Z,1.20
2023-02-01T15:33:10.025Z,1.60
2023-02-01T15:35:39.664Z,0.70
2023-02-01T15:38:24.847Z,0.80
2023-02-01T15:41:17.522Z,0.80
2023-02-01T15:43:56.720Z,1.98
2023-02-01T15:46:35.064Z,1.75
2023-02-01T15:49:02.045Z,1.80
2023-02-01T15:51:31.872Z,1.42
2023-02-01T15:54:06.003Z,0.75
2023-02-01T15:56:38.993Z,1.25
2023-02-01T15:59:16.186Z,1.20
2023-02-01T16:01:43.519Z,1.35
2023-02-01T16:04:34.245Z,1.70
2023-02-01T16:07:05.746Z,1.15
2023-02-01T16:09:54.088Z,1.20
2023-02-01T16:12:32.690Z,1.42
2023-02-01T16:14:59.705Z,0.63
2023-02-01T16:17:26.757Z,0.50
2023-02-01T16:19:54.021Z,0.85
2023-02-01T16:22:21.027Z,0.80
2023-02-01T16:24:47.927Z,0.60
2023-02-01T16:27:14.965Z,0.60
2023-02-01T16:29:43.274Z,0.98
2023-02-01T16:32:18.948Z,0.90
2023-02-01T16:34:47.564Z,1.70
2023-02-01T16:37:18.492Z,4.88
2023-02-01T16:39:45.543Z,3.13
2023-02-01T16:42:14.429Z,1.88
2023-02-01T16:44:43.468Z,4.03
2023-02-01T16:47:18.272Z,4.18
2023-02-01T16:49:46.257Z,2.92
2023-02-01T16:52:26.610Z,1.67
2023-02-01T16:54:54.235Z,1.50
2023-02-01T16:57:25.237Z,2.45
2023-02-01T16:59:52.599Z,1.92
2023-02-01T17:02:22.236Z,2.45
2023-02-01T17:04:50.220Z,1.73
2023-02-01T17:07:19.976Z,1.02
2023-02-01T17:09:48.276Z,1.40
2023-02-01T17:12:30.944Z,1.10
2023-02-01T17:14:59.342Z,1.10
2023-02-01T17:17:38.821Z,1.40
2023-02-01T17:20:07.614Z,1.10
2023-02-01T17:22:35.154Z,1.35
2023-02-01T17:25:02.470Z,1.48
2023-02-01T17:27:30.459Z,1.90
2023-02-01T17:29:57.538Z,2.00
2023-02-01T17:32:26.498Z,1.55
2023-02-01T17:34:53.542Z,1.50
2023-02-01T17:37:27.884Z,1.38
2023-02-01T17:39:55.091Z,1.52
2023-02-01T17:42:23.091Z,1.35
2023-02-01T17:44:52.974Z,2.67
2023-02-01T17:47:19.866Z,3.08
2023-02-01T17:49:46.984Z,2.33
2023-02-01T17:52:18.747Z,2.45
2023-02-01T17:54:48.171Z,2.10
2023-02-01T17:57:15.258Z,3.28
2023-02-01T17:59:42.459Z,3.30
2023-02-01T18:02:25.684Z,2.75
2023-02-01T18:04:53.385Z,2.25
2023-02-01T18:07:20.554Z,2.67
2023-02-01T18:09:47.682Z,2.10
2023-02-01T18:12:23.812Z,1.90
2023-02-01T18:14:50.783Z,2.38
2023-02-01T18:17:17.701Z,2.70
2023-02-01T18:19:44.699Z,1.75
2023-02-01T18:22:24.902Z,1.88
2023-02-01T18:24:51.852Z,2.72
2023-02-01T18:27:18.773Z,2.78
2023-02-01T18:29:45.663Z,2.20
2023-02-01T18:32:16.066Z,1.98
2023-02-01T18:34:43.740Z,3.10
2023-02-01T18:37:10.813Z,3.80
2023-02-01T18:39:39.658Z,6.65
2023-02-01T18:42:06.793Z,7.45
2023-02-01T18:44:33.624Z,8.02
2023-02-01T18:47:01.095Z,7.20
2023-02-01T18:49:27.956Z,7.63
2023-02-01T18:51:54.848Z,6.45
2023-02-01T18:54:21.741Z,9.27
2023-02-01T18:56:48.730Z,6.22
2023-02-01T18:59:17.892Z,6.00
2023-02-01T19:01:45.054Z,5.47
2023-02-01T19:04:16.800Z,6.20
2023-02-01T19:06:46.051Z,4.72
2023-02-01T19:09:13.249Z,4.63
2023-02-01T19:11:40.460Z,6.75
2023-02-01T19:14:07.640Z,6.68
2023-02-01T19:16:36.354Z,5.82
2023-02-01T19:19:03.708Z,4.90
2023-02-01T19:21:31.068Z,7.53
2023-02-01T19:23:58.331Z,6.53
2023-02-01T19:26:25.295Z,6.40
2023-02-01T19:28:52.325Z,5.90
2023-02-01T19:31:19.640Z,3.90
2023-02-01T19:33:47.051Z,4.20
2023-02-01T19:36:14.170Z,6.32
2023-02-01T19:38:41.302Z,4.85
2023-02-01T19:41:08.749Z,4.60
2023-02-01T19:43:37.265Z,4.20
2023-02-01T19:46:04.835Z,4.15
2023-02-01T19:48:32.154Z,3.55
2023-02-01T19:50:59.543Z,3.60
2023-02-01T19:53:28.289Z,2.88
2023-02-01T19:55:58.892Z,2.90
2023-02-01T19:58:28.565Z,3.00
2023-02-01T20:00:58.150Z,2.60
2023-02-01T20:03:25.300Z,2.58
2023-02-01T20:05:57.410Z,2.85
2023-02-01T20:08:25.846Z,2.35
2023-02-01T20:10:53.642Z,2.78
2023-02-01T20:13:21.841Z,2.83
2023-02-01T20:15:48.976Z,3.08
2023-02-01T20:18:16.302Z,5.00
2023-02-01T20:20:45.105Z,5.78
2023-02-01T20:23:12.514Z,3.65
2023-02-01T20:25:42.706Z,4.63
2023-02-01T20:28:09.910Z,5.55
2023-02-01T20:30:37.656Z,7.60
2023-02-01T20:33:06.085Z,9.48
2023-02-01T20:35:33.819Z,8.23
2023-02-01T20:38:02.511Z,7.50
2023-02-01T20:40:30.110Z,7.22
2023-02-01T20:42:58.813Z,6.85
2023-02-01T20:45:28.556Z,6.40
2023-02-01T20:47:58.795Z,5.13
2023-02-01T20:50:25.901Z,4.93
2023-02-01T20:52:53.796Z,4.50
2023-02-01T20:55:24.502Z,4.32
2023-02-01T20:57:55.435Z,3.38
2023-02-01T21:00:26.402Z,3.28
2023-02-01T21:02:53.771Z,3.40
2023-02-01T21:05:22.116Z,3.13
2023-02-01T21:07:52.222Z,4.05
2023-02-01T21:10:19.395Z,2.92
2023-02-01T21:12:48.023Z,2.90
2023-02-01T21:15:16.389Z,2.72
2023-02-01T21:17:43.939Z,2.20
2023-02-01T21:20:12.049Z,2.20
2023-02-01T21:22:39.251Z,2.28
2023-02-01T21:25:06.800Z,2.42
2023-02-01T21:27:34.021Z,2.00
2023-02-01T21:30:01.860Z,2.22
2023-02-01T21:32:29.468Z,1.85
2023-02-01T21:34:59.069Z,1.52
2023-02-01T21:37:27.891Z,2.50
2023-02-01T21:39:57.074Z,1.55
2023-02-01T21:42:26.858Z,1.67
2023-02-01T21:44:55.902Z,2.08
2023-02-01T21:47:25.940Z,1.70
2023-02-01T21:49:55.282Z,2.17
2023-02-01T21:52:23.635Z,3.25
2023-02-01T21:54:57.545Z,2.22
2023-02-01T21:57:24.671Z,3.38
2023-02-01T21:59:51.876Z,1.95
2023-02-01T22:02:19.235Z,2.00
2023-02-01T22:04:46.280Z,1.83
2023-02-01T22:07:13.731Z,1.98
2023-02-01T22:09:41.208Z,1.77
2023-02-01T22:12:13.002Z,1.65
2023-02-01T22:14:40.895Z,1.80
2023-02-01T22:17:07.867Z,1.88
2023-02-01T22:19:34.896Z,2.92
2023-02-01T22:22:02.203Z,2.30
2023-02-01T22:24:29.248Z,1.70
2023-02-01T22:26:56.229Z,1.65
2023-02-01T22:29:41.325Z,1.40
2023-02-01T22:32:08.910Z,1.67
2023-02-01T22:34:36.074Z,1.65
2023-02-01T22:37:03.443Z,1.63
2023-02-01T22:39:30.515Z,1.73
2023-02-01T22:41:57.788Z,1.77
2023-02-01T22:44:24.844Z,1.48
2023-02-01T22:46:51.750Z,1.50
2023-02-01T22:49:18.693Z,1.48
2023-02-01T22:51:46.555Z,1.20
2023-02-01T22:54:19.190Z,1.40
2023-02-01T22:56:46.183Z,1.58
2023-02-01T22:59:14.616Z,1.60
2023-02-01T23:01:42.255Z,1.45
2023-02-01T23:04:12.513Z,1.30
2023-02-01T23:06:39.616Z,1.43
2023-02-01T23:09:15.879Z,1.30
2023-02-01T23:11:43.732Z,1.77
2023-02-01T23:14:12.817Z,1.50
2023-02-01T23:16:41.270Z,1.40
2023-02-01T23:19:08.444Z,1.40
2023-02-01T23:21:36.032Z,1.30
2023-02-01T23:24:07.416Z,1.30
2023-02-01T23:26:34.875Z,1.40
2023-02-01T23:29:02.598Z,1.40
2023-02-01T23:31:32.043Z,1.13
2023-02-01T23:34:00.864Z,1.30
2023-02-01T23:36:28.961Z,1.23
2023-02-01T23:38:56.412Z,1.25
2023-02-01T23:41:24.425Z,1.52
2023-02-01T23:44:00.906Z,1.70
2023-02-01T23:46:36.922Z,0.93
2023-02-01T23:49:05.676Z,1.30
2023-02-01T23:51:33.302Z,1.10
2023-02-01T23:54:00.756Z,1.30
2023-02-01T23:56:33.656Z,1.48
2023-02-01T23:59:02.376Z,1.30
